Ellinwood, KS (67526)

3:07 AM CDT on August 22, 2014 (GMT -0500)
Ellinwood High School | Change Station
CLOSE
Current Station
Personal Weather Station
Location: Ellinwood, KS
Elevation: 1811 ft
Nearby Weather Stations

Elev 1811 ft 38.36 °N, 98.58 °W | Updated 6 seconds ago

Partly Cloudy
Partly Cloudy
82.2 °F
Feels Like 86 °F
N
6.9
Wind Variable Wind from SSW
Gusts 12.1 mph

Today
High -- | Low -- °F
--% Chance of Precip.
Yesterday
High -- | Low -- °F
Precip. -- in
6:55 AM 8:18 PM
Waning Crescent, 9% visible
Pressure 29.89 in
Visibility 10.0 miles
Clouds Few 10000 ft
Heat Index 86 °F
Dew Point 70 °F
Humidity 68%
Rainfall 0.00 in
Snow Depth Not available.
UV 0.0 out of 12
Pollen 11.60 out of 12
Air Quality Not available.
Flu Activity Not available.
METAR KGBD 220755Z AUTO 18010KT 10SM FEW100 28/19 A2989 RMK AO1

More Conditions Fewer Conditions

Pressure 29.89 in
Visibility 10.0 miles
Clouds Few 10000 ft
Heat Index 86 °F
Dew Point 70 °F
Humidity 68%
Rainfall 0.00 in
Snow Depth Not available.
UV 0.0 out of 12
Pollen 11.60 out of 12
Air Quality Not available.
Flu Activity Not available.
METAR KGBD 220755Z AUTO 18010KT 10SM FEW100 28/19 A2989 RMK AO1

More Conditions Fewer Conditions

10-Day Weather Forecast

Almanac

Astronomy

Aug. 22, 2014 Rise Set
Actual Time 6:55 AM CDT 8:18 PM CDT
Civil Twilight 6:27 AM CDT 8:46 PM CDT
Nautical Twilight 5:54 AM CDT 9:19 PM CDT
Astronomical Twilight 5:19 AM CDT 9:54 PM CDT
Moon 4:20 AM CDT 6:27 PM CDT
Length of Visible Light 14h 18m
Length of Day
13h 23m
Tomorrow will be 2m 17s shorter.
Waning Crescent, 9% of the Moon is Illuminated
Today
Waning Crescent
Aug 25
New
Sep 2
First Quarter
Sep 8
Full
Sep 15
Last Quarter

Today's Extremes

State Highs State Lows

Community

WunderPhotos

Upload Photos

1,746,142 photos uploaded!

Nearby

Snow Depth

Station Depth Elevation
No new snow has been reported.

Earthquake Activity

City Distance Mag. Time & Date
Cherokee, Oklahoma 112 miles 2.6 11:50 AM CDT
2014-08-17
Medford, Oklahoma 110 miles 3.1 11:35 AM CDT
2014-08-17
Medford, Oklahoma 110 miles 3.4 10:59 AM CDT
2014-08-17
Medford, Oklahoma 113 miles 2.7 2:28 AM CDT
2014-08-17
Minimum magnitude displayed is 2.5.

Coastal Water Temperatures

Place Temperature
No Stations Reporting

Nearby Weather Stations